Time;durP1;ratioP1;P1;durP2;ratioP2;P2;SDS_P1;SDS_P2;PMS_P1;PMS_P2;Temp;Humidity;BMP_temperature;BMP_pressure;BME280_temperature;BME280_humidity;BME280_pressure;Samples;Min_cycle;Max_cycle;Signal;HPM_P1;HPM_P2
2023/01/03 00:00:16;;;;;;;6.20;4.00;;;;;;;;;;21260351;27;20107;-60
2023/01/03 00:10:19;;;;;;;9.77;4.40;;;;;;;;;;21260227;27;20471;-61
2023/01/03 00:20:22;;;;;;;8.02;4.43;;;;;;;;;;21258275;27;20395;-60
2023/01/03 00:30:24;;;;;;;8.40;4.00;;;;;;;;;;21258104;27;20098;-61
2023/01/03 00:40:26;;;;;;;9.93;4.68;;;;;;;;;;21257208;27;20134;-59
2023/01/03 00:50:28;;;;;;;6.82;4.00;;;;;;;;;;21256099;27;20411;-60
2023/01/03 01:00:30;;;;;;;7.95;4.03;;;;;;;;;;21255541;27;20150;-60
2023/01/03 01:10:33;;;;;;;6.47;3.97;;;;;;;;;;21254184;27;20050;-62
2023/01/03 01:20:38;;;;;;;7.13;4.45;;;;;;;;;;21253909;27;20058;-58
2023/01/03 01:30:41;;;;;;;7.65;4.43;;;;;;;;;;21253410;27;20039;-59
2023/01/03 01:40:43;;;;;;;9.07;4.30;;;;;;;;;;21252321;27;20054;-60
2023/01/03 01:50:50;;;;;;;10.13;4.80;;;;;;;;;;21251687;27;20471;-60
2023/01/03 02:00:52;;;;;;;6.78;4.30;;;;;;;;;;21250203;27;20526;-61
2023/01/03 02:11:01;;;;;;;7.75;4.40;;;;;;;;;;21250538;27;20050;-61
2023/01/03 02:21:04;;;;;;;7.47;4.63;;;;;;;;;;21249275;27;20079;-60
2023/01/03 02:31:14;;;;;;;6.18;4.00;;;;;;;;;;21248250;27;20051;-60
2023/01/03 02:41:22;;;;;;;9.48;4.80;;;;;;;;;;21249771;27;20055;-60
2023/01/03 02:51:30;;;;;;;9.88;5.22;;;;;;;;;;21265371;27;20096;-60
2023/01/03 03:01:35;;;;;;;8.40;5.40;;;;;;;;;;21216601;27;20057;-60
2023/01/03 03:32:31;;;;;;;7.45;4.50;;;;;;;;;;21178078;28;20040;-61
2023/01/03 03:52:57;;;;;;;9.20;4.63;;;;;;;;;;21175685;28;20085;-61
2023/01/03 04:03:01;;;;;;;8.10;4.43;;;;;;;;;;21174868;28;20426;-60
2023/01/03 04:13:05;;;;;;;7.32;4.30;;;;;;;;;;21173865;28;20084;-60
2023/01/03 04:23:08;;;;;;;7.85;4.85;;;;;;;;;;21173687;28;20093;-61
2023/01/03 04:33:10;;;;;;;8.98;5.45;;;;;;;;;;21171884;28;20052;-61
2023/01/03 04:53:35;;;;;;;12.68;5.25;;;;;;;;;;21170715;28;20052;-61
2023/01/03 05:03:39;;;;;;;7.60;4.57;;;;;;;;;;21169657;28;20420;-61
2023/01/03 05:13:42;;;;;;;7.63;5.05;;;;;;;;;;21168519;28;20391;-60
2023/01/03 05:34:08;;;;;;;9.13;5.07;;;;;;;;;;21166960;28;20054;-60
2023/01/03 05:44:10;;;;;;;8.98;5.75;;;;;;;;;;21166761;28;20054;-60
2023/01/03 05:54:14;;;;;;;9.10;5.55;;;;;;;;;;21165594;28;20090;-60
2023/01/03 06:04:16;;;;;;;8.98;5.10;;;;;;;;;;21164777;28;20392;-61
2023/01/03 06:14:21;;;;;;;9.35;5.97;;;;;;;;;;21165043;28;20112;-59
2023/01/03 06:24:23;;;;;;;11.05;6.03;;;;;;;;;;21162809;28;20415;-60
2023/01/03 06:34:25;;;;;;;7.95;5.13;;;;;;;;;;21163101;28;20052;-60
2023/01/03 06:44:28;;;;;;;8.32;5.35;;;;;;;;;;21162569;28;20124;-60
2023/01/03 06:54:34;;;;;;;9.32;5.60;;;;;;;;;;21163069;28;20051;-60
2023/01/03 07:04:37;;;;;;;10.95;5.78;;;;;;;;;;21162119;28;20059;-61
2023/01/03 07:14:40;;;;;;;9.40;5.57;;;;;;;;;;21163062;28;20375;-60
2023/01/03 07:24:43;;;;;;;7.97;5.85;;;;;;;;;;21161165;28;20051;-60
2023/01/03 07:34:45;;;;;;;11.65;5.95;;;;;;;;;;21173929;28;20449;-61
2023/01/03 07:44:47;;;;;;;7.40;5.00;;;;;;;;;;21176197;28;20051;-61
2023/01/03 07:54:50;;;;;;;8.23;5.43;;;;;;;;;;21175596;28;20048;-60
2023/01/03 08:04:52;;;;;;;9.35;5.90;;;;;;;;;;21174198;28;20074;-59
2023/01/03 08:14:54;;;;;;;9.00;6.18;;;;;;;;;;21173452;28;20055;-59
2023/01/03 08:24:57;;;;;;;8.40;5.32;;;;;;;;;;21172306;28;20051;-60
2023/01/03 08:34:59;;;;;;;9.93;5.65;;;;;;;;;;21173416;28;20044;-58
2023/01/03 08:45:03;;;;;;;10.10;6.30;;;;;;;;;;21170338;28;20051;-60
2023/01/03 08:55:07;;;;;;;10.98;5.93;;;;;;;;;;21170337;28;20167;-60
2023/01/03 09:05:09;;;;;;;8.80;5.53;;;;;;;;;;21169671;28;20079;-60
